createdAt,value
2019-04-10T00:01:42.526Z,31.30
2019-04-10T00:04:13.271Z,31.47
2019-04-10T00:06:43.835Z,30.70
2019-04-10T00:09:14.790Z,29.00
2019-04-10T00:11:47.216Z,30.70
2019-04-10T00:14:18.587Z,31.20
2019-04-10T00:16:48.926Z,30.50
2019-04-10T00:19:20.312Z,30.60
2019-04-10T00:21:52.106Z,30.37
2019-04-10T00:24:24.705Z,31.57
2019-04-10T00:26:56.342Z,31.60
2019-04-10T00:29:28.598Z,32.53
2019-04-10T00:32:01.737Z,33.63
2019-04-10T00:34:32.263Z,31.83
2019-04-10T00:37:03.986Z,32.60
2019-04-10T00:39:34.887Z,32.00
2019-04-10T00:42:05.402Z,32.07
2019-04-10T00:44:37.510Z,32.43
2019-04-10T00:47:07.983Z,32.93
2019-04-10T00:49:38.344Z,31.80
2019-04-10T00:52:12.795Z,31.37
2019-04-10T00:54:43.421Z,32.80
2019-04-10T00:57:15.283Z,33.53
2019-04-10T00:59:45.613Z,32.17
2019-04-10T01:02:18.570Z,31.87
2019-04-10T01:04:50.805Z,33.53
2019-04-10T01:07:34.696Z,32.70
2019-04-10T01:09:55.563Z,33.70
2019-04-10T01:12:27.961Z,33.20
2019-04-10T01:14:58.491Z,35.73
2019-04-10T01:17:31.135Z,33.77
2019-04-10T01:20:01.725Z,32.67
2019-04-10T01:22:32.938Z,32.50
2019-04-10T01:25:04.305Z,33.07
2019-04-10T01:27:34.627Z,32.93
2019-04-10T01:30:06.989Z,31.83
2019-04-10T01:32:39.797Z,32.87
2019-04-10T01:35:10.325Z,31.17
2019-04-10T01:37:51.270Z,32.90
2019-04-10T01:40:12.964Z,32.67
2019-04-10T01:42:44.459Z,33.90
2019-04-10T01:45:16.290Z,31.87
2019-04-10T01:47:47.634Z,33.17
2019-04-10T01:50:18.080Z,31.70
2019-04-10T01:52:49.138Z,31.67
2019-04-10T01:55:25.279Z,33.90
2019-04-10T01:57:52.797Z,32.23
2019-04-10T02:00:24.234Z,31.13
2019-04-10T02:02:55.888Z,32.17
2019-04-10T02:05:26.577Z,31.63
2019-04-10T02:08:03.454Z,32.20
2019-04-10T02:10:30.071Z,31.37
2019-04-10T02:13:01.297Z,31.13
2019-04-10T02:15:32.205Z,31.83
2019-04-10T02:18:03.277Z,31.13
2019-04-10T02:20:35.014Z,32.53
2019-04-10T02:23:07.716Z,31.57
2019-04-10T02:25:39.095Z,32.90
2019-04-10T02:28:11.862Z,31.93
2019-04-10T02:30:43.719Z,32.67
2019-04-10T02:33:17.866Z,31.17
2019-04-10T02:35:48.887Z,32.13
2019-04-10T02:38:35.784Z,31.90
2019-04-10T02:40:53.131Z,32.87
2019-04-10T02:43:23.818Z,32.37
2019-04-10T02:45:55.729Z,32.37
2019-04-10T02:48:27.567Z,33.17
2019-04-10T02:50:59.572Z,32.23
2019-04-10T02:53:31.771Z,29.97
2019-04-10T02:56:05.263Z,31.57
2019-04-10T02:58:36.054Z,31.23
2019-04-10T03:01:07.011Z,31.93
2019-04-10T03:03:38.459Z,31.47
2019-04-10T03:06:11.443Z,33.33
2019-04-10T03:09:00.441Z,32.87
2019-04-10T03:11:14.640Z,31.40
2019-04-10T03:13:47.291Z,32.23
2019-04-10T03:16:19.463Z,32.53
2019-04-10T03:18:49.934Z,34.00
2019-04-10T03:21:20.805Z,34.23
2019-04-10T03:23:51.274Z,35.63
2019-04-10T03:26:23.647Z,33.17
2019-04-10T03:28:54.160Z,32.93
2019-04-10T03:31:27.208Z,33.80
2019-04-10T03:34:11.784Z,33.50
2019-04-10T03:36:41.558Z,35.33
2019-04-10T03:39:13.132Z,35.63
2019-04-10T03:41:44.288Z,34.67
2019-04-10T03:44:14.823Z,33.73
2019-04-10T03:46:45.487Z,36.70
2019-04-10T03:49:16.434Z,35.03
2019-04-10T03:51:47.168Z,36.40
2019-04-10T03:54:18.764Z,34.90
2019-04-10T03:56:50.021Z,35.40
2019-04-10T03:59:22.376Z,37.37
2019-04-10T04:01:53.422Z,35.20
2019-04-10T04:04:26.301Z,36.23
2019-04-10T04:06:57.800Z,35.00
2019-04-10T04:09:29.388Z,35.23
2019-04-10T04:12:00.590Z,35.33
2019-04-10T04:14:32.506Z,33.27
2019-04-10T04:17:04.126Z,34.47
2019-04-10T04:19:34.614Z,36.47
2019-04-10T04:22:08.103Z,35.50
2019-04-10T04:24:40.068Z,34.43
2019-04-10T04:27:11.121Z,34.50
2019-04-10T04:29:41.998Z,35.47
2019-04-10T04:32:13.418Z,33.63
2019-04-10T04:34:45.417Z,36.67
2019-04-10T04:37:16.630Z,36.47
2019-04-10T04:39:47.537Z,35.83
2019-04-10T04:42:18.359Z,35.97
2019-04-10T04:44:48.881Z,35.33
2019-04-10T04:47:20.941Z,33.13
2019-04-10T04:49:52.345Z,33.03
2019-04-10T04:52:23.849Z,35.10
2019-04-10T04:54:55.250Z,33.93
2019-04-10T04:57:26.231Z,33.73
2019-04-10T04:59:56.928Z,34.40
2019-04-10T05:02:28.239Z,30.97
2019-04-10T05:04:58.695Z,28.57
2019-04-10T05:07:29.552Z,29.80
2019-04-10T05:10:01.683Z,30.30
2019-04-10T05:12:32.557Z,27.10
2019-04-10T05:15:04.426Z,28.70
2019-04-10T05:17:35.487Z,26.60
2019-04-10T05:20:07.601Z,28.33
2019-04-10T05:22:39.593Z,25.67
2019-04-10T05:25:11.603Z,25.90
2019-04-10T05:27:43.855Z,26.20
2019-04-10T05:30:14.889Z,27.10
2019-04-10T05:32:47.283Z,25.83
2019-04-10T05:35:19.220Z,24.87
2019-04-10T05:37:49.931Z,25.80
2019-04-10T05:40:21.251Z,25.73
2019-04-10T05:42:53.359Z,25.50
2019-04-10T05:45:23.885Z,25.33
2019-04-10T05:47:54.782Z,25.63
2019-04-10T05:50:25.752Z,25.47
2019-04-10T05:52:57.925Z,25.17
2019-04-10T05:55:28.979Z,24.43
2019-04-10T05:58:01.705Z,24.27
2019-04-10T06:00:32.701Z,23.67
2019-04-10T06:03:06.189Z,25.77
2019-04-10T06:05:36.868Z,24.30
2019-04-10T06:08:07.852Z,24.03
2019-04-10T06:10:41.531Z,24.37
2019-04-10T06:13:12.987Z,25.07
2019-04-10T06:15:45.419Z,23.93
2019-04-10T06:18:16.404Z,23.87
2019-04-10T06:20:47.347Z,25.33
2019-04-10T06:23:19.066Z,23.67
2019-04-10T06:25:50.137Z,23.77
2019-04-10T06:28:21.351Z,23.60
2019-04-10T06:30:52.913Z,23.73
2019-04-10T06:33:24.348Z,23.50
2019-04-10T06:35:57.383Z,25.73
2019-04-10T06:38:28.710Z,23.13
2019-04-10T06:40:59.998Z,23.83
2019-04-10T06:43:30.992Z,23.57
2019-04-10T06:46:01.856Z,23.27
2019-04-10T06:48:34.529Z,24.43
2019-04-10T06:51:08.545Z,24.50
2019-04-10T06:53:39.358Z,24.17
2019-04-10T06:56:11.239Z,23.37
2019-04-10T06:58:42.861Z,25.27
2019-04-10T07:01:14.687Z,24.43
2019-04-10T07:03:57.526Z,24.63
2019-04-10T07:06:26.690Z,24.07
2019-04-10T07:08:55.356Z,24.97
2019-04-10T07:11:30.485Z,24.90
2019-04-10T07:13:59.856Z,23.97
2019-04-10T07:16:32.613Z,25.23
2019-04-10T07:19:07.121Z,23.07
2019-04-10T07:21:37.624Z,24.43
2019-04-10T07:24:10.969Z,26.23
2019-04-10T07:26:44.571Z,25.03
2019-04-10T07:29:18.742Z,24.73
2019-04-10T07:31:46.853Z,25.50
2019-04-10T07:34:22.051Z,25.03
2019-04-10T07:36:53.984Z,24.17
2019-04-10T07:39:29.526Z,23.80
2019-04-10T07:41:58.666Z,23.33
2019-04-10T07:44:29.335Z,23.87
2019-04-10T07:47:00.864Z,24.97
2019-04-10T07:49:33.364Z,23.90
2019-04-10T07:52:05.113Z,24.23
2019-04-10T07:54:35.714Z,24.07
2019-04-10T07:57:06.421Z,23.80
2019-04-10T07:59:37.593Z,25.03
2019-04-10T08:02:10.134Z,24.27
2019-04-10T08:04:40.714Z,24.20
2019-04-10T08:07:15.439Z,23.73
2019-04-10T08:09:44.502Z,24.13
2019-04-10T08:12:15.575Z,24.43
2019-04-10T08:14:46.349Z,23.20
2019-04-10T08:17:16.749Z,24.40
2019-04-10T08:19:48.747Z,24.90
2019-04-10T08:22:20.181Z,23.77
2019-04-10T08:24:51.298Z,25.10
2019-04-10T08:27:22.201Z,24.90
2019-04-10T08:29:52.847Z,23.73
2019-04-10T08:32:23.718Z,24.30
2019-04-10T08:34:54.153Z,25.27
2019-04-10T08:37:26.156Z,22.83
2019-04-10T08:39:59.158Z,23.70
2019-04-10T08:42:30.949Z,26.20
2019-04-10T08:45:01.508Z,24.50
2019-04-10T08:47:33.867Z,25.77
2019-04-10T08:50:05.654Z,25.27
2019-04-10T08:52:37.040Z,25.80
2019-04-10T08:55:13.432Z,25.77
2019-04-10T08:57:47.673Z,24.90
2019-04-10T09:00:18.665Z,24.80
2019-04-10T09:02:50.523Z,25.77
2019-04-10T09:05:21.702Z,25.20
2019-04-10T09:07:52.774Z,24.87
2019-04-10T09:10:23.271Z,26.27
2019-04-10T09:12:54.559Z,26.00
2019-04-10T09:15:27.741Z,25.50
2019-04-10T09:18:01.911Z,25.40
2019-04-10T09:20:31.434Z,26.57
2019-04-10T09:23:21.482Z,27.20
2019-04-10T09:25:35.847Z,25.90
2019-04-10T09:28:08.511Z,25.80
2019-04-10T09:30:40.895Z,24.87
2019-04-10T09:33:21.197Z,27.10
2019-04-10T09:35:44.626Z,27.50
2019-04-10T09:38:15.058Z,25.47
2019-04-10T09:40:46.654Z,25.30
2019-04-10T09:43:17.767Z,27.23
2019-04-10T09:45:49.949Z,26.50
2019-04-10T09:48:20.430Z,26.90
2019-04-10T09:50:50.916Z,26.13
2019-04-10T09:53:21.714Z,28.00
2019-04-10T09:55:52.525Z,27.63
2019-04-10T09:58:23.992Z,26.30
2019-04-10T10:00:56.503Z,26.63
2019-04-10T10:03:28.194Z,27.43
2019-04-10T10:06:00.080Z,26.90
2019-04-10T10:08:32.425Z,26.27
2019-04-10T10:11:03.931Z,28.13
2019-04-10T10:13:37.387Z,27.83
2019-04-10T10:16:08.532Z,29.90
2019-04-10T10:18:39.141Z,29.07
2019-04-10T10:21:12.406Z,28.67
2019-04-10T10:23:44.582Z,28.30
2019-04-10T10:26:16.138Z,29.73
2019-04-10T10:28:47.107Z,30.53
2019-04-10T10:31:20.174Z,29.67
2019-04-10T10:33:52.123Z,28.20
2019-04-10T10:36:34.627Z,29.33
2019-04-10T10:39:04.958Z,29.07
2019-04-10T10:41:31.935Z,29.10
2019-04-10T10:44:02.815Z,27.73
2019-04-10T10:46:33.710Z,28.83
2019-04-10T10:49:06.275Z,30.40
2019-04-10T10:51:39.229Z,31.10
2019-04-10T10:54:10.597Z,31.30
2019-04-10T10:56:41.226Z,31.03
2019-04-10T10:59:13.368Z,30.93
2019-04-10T11:01:44.283Z,30.77
2019-04-10T11:04:15.282Z,32.13
2019-04-10T11:09:19.635Z,30.67
2019-04-10T11:11:50.362Z,31.40
2019-04-10T11:14:21.476Z,31.77
2019-04-10T11:16:54.058Z,32.33
2019-04-10T11:19:24.507Z,29.77
2019-04-10T11:21:56.844Z,33.47
2019-04-10T11:24:27.359Z,31.33
2019-04-10T11:26:57.857Z,31.33
2019-04-10T11:29:28.742Z,31.90
2019-04-10T11:32:01.821Z,32.33
2019-04-10T11:34:35.620Z,33.07
2019-04-10T11:37:24.174Z,30.63
2019-04-10T11:39:43.894Z,32.40
2019-04-10T11:42:15.015Z,29.80
2019-04-10T11:44:48.602Z,30.80
2019-04-10T11:47:19.909Z,32.07
2019-04-10T11:49:56.865Z,32.57
2019-04-10T11:55:06.804Z,32.70
2019-04-10T11:57:32.532Z,32.40
2019-04-10T12:00:10.674Z,31.23
2019-04-10T12:02:39.430Z,31.30
2019-04-10T12:05:14.879Z,30.37
2019-04-10T12:12:49.955Z,31.37
2019-04-10T12:15:21.135Z,30.90
2019-04-10T12:17:51.986Z,31.17
2019-04-10T12:20:22.514Z,30.67
2019-04-10T12:22:53.021Z,30.70
2019-04-10T12:25:25.010Z,31.53
2019-04-10T12:27:57.805Z,31.23
2019-04-10T12:30:28.958Z,30.67
2019-04-10T12:32:59.519Z,31.53
2019-04-10T12:35:31.724Z,32.13
2019-04-10T12:38:06.356Z,32.73
2019-04-10T12:40:38.699Z,30.70
2019-04-10T12:43:08.537Z,30.77
2019-04-10T12:45:40.197Z,29.70
2019-04-10T12:48:11.230Z,32.50
2019-04-10T12:50:41.707Z,31.53
2019-04-10T12:53:13.510Z,32.90
2019-04-10T12:55:44.348Z,32.90
2019-04-10T12:58:17.521Z,33.43
2019-04-10T13:00:48.010Z,32.20
2019-04-10T13:03:18.903Z,32.57
2019-04-10T13:05:49.509Z,32.17
2019-04-10T13:08:22.825Z,31.80
2019-04-10T13:10:54.013Z,31.60
2019-04-10T13:13:24.537Z,31.83
2019-04-10T13:15:56.258Z,32.40
2019-04-10T13:18:28.132Z,32.97
2019-04-10T13:20:58.919Z,32.50
2019-04-10T13:23:29.621Z,31.67
2019-04-10T13:26:03.262Z,31.50
2019-04-10T13:28:32.317Z,31.03
2019-04-10T13:31:04.042Z,31.90
2019-04-10T13:33:34.550Z,31.10
2019-04-10T13:36:05.104Z,32.43
2019-04-10T13:38:36.812Z,32.03
2019-04-10T13:41:08.141Z,32.50
2019-04-10T13:43:38.658Z,31.47
2019-04-10T13:46:11.021Z,32.60
2019-04-10T13:48:41.806Z,32.27
2019-04-10T13:51:13.086Z,31.17
2019-04-10T13:53:44.141Z,32.10
2019-04-10T13:56:14.968Z,34.00
2019-04-10T13:58:46.766Z,31.47
2019-04-10T14:01:27.724Z,32.53
2019-04-10T14:04:01.034Z,31.43
2019-04-10T14:06:31.956Z,31.40
2019-04-10T14:09:22.526Z,32.57
2019-04-10T14:11:39.469Z,31.23
2019-04-10T14:14:10.621Z,33.33
2019-04-10T14:16:41.434Z,31.07
2019-04-10T14:19:12.926Z,32.90
2019-04-10T14:21:45.625Z,31.43
2019-04-10T14:24:17.883Z,31.37
2019-04-10T14:27:05.810Z,31.20
2019-04-10T14:29:38.604Z,30.87
2019-04-10T14:32:11.396Z,32.30
2019-04-10T14:34:42.880Z,31.23
2019-04-10T14:37:13.967Z,30.73
2019-04-10T14:39:47.625Z,30.87
2019-04-10T14:42:18.363Z,29.77
2019-04-10T14:44:50.170Z,29.67
2019-04-10T14:47:21.259Z,30.93
2019-04-10T14:49:53.613Z,29.87
2019-04-10T14:52:25.374Z,32.13
2019-04-10T14:54:57.206Z,31.57
2019-04-10T14:57:28.588Z,30.60
2019-04-10T15:00:00.138Z,29.37
2019-04-10T15:02:30.747Z,28.50
2019-04-10T15:05:01.937Z,28.90
2019-04-10T15:07:33.114Z,29.20
2019-04-10T15:10:04.560Z,30.57
2019-04-10T15:12:35.491Z,31.30
2019-04-10T15:15:06.686Z,30.73
2019-04-10T15:17:40.190Z,30.10
2019-04-10T15:20:13.260Z,30.00
2019-04-10T15:22:45.900Z,30.13
2019-04-10T15:25:17.510Z,31.70
2019-04-10T15:27:49.650Z,31.00
2019-04-10T15:30:20.286Z,29.60
2019-04-10T15:32:50.812Z,30.40
2019-04-10T15:35:24.299Z,31.10
2019-04-10T15:37:58.180Z,30.63
2019-04-10T15:40:30.233Z,30.47
2019-04-10T15:43:01.305Z,31.13
2019-04-10T15:45:32.469Z,29.77
2019-04-10T15:48:05.072Z,29.07
2019-04-10T15:50:35.720Z,30.67
2019-04-10T15:53:07.477Z,31.20
2019-04-10T15:55:38.233Z,30.97
2019-04-10T15:58:10.807Z,31.00
2019-04-10T16:00:43.562Z,31.20
2019-04-10T16:03:16.037Z,27.73
2019-04-10T16:05:46.712Z,31.07
2019-04-10T16:08:20.674Z,31.47
2019-04-10T16:11:09.828Z,30.03
2019-04-10T16:13:44.273Z,30.47
2019-04-10T16:16:42.283Z,30.23
2019-04-10T16:19:22.602Z,29.73
2019-04-10T16:21:54.213Z,28.87
2019-04-10T16:24:27.095Z,29.47
2019-04-10T16:26:58.238Z,28.97
2019-04-10T16:29:28.883Z,29.60
2019-04-10T16:32:00.463Z,29.83
2019-04-10T16:34:30.929Z,30.07
2019-04-10T16:37:01.933Z,30.23
2019-04-10T16:39:34.187Z,29.13
2019-04-10T16:42:06.504Z,29.23
2019-04-10T16:44:39.672Z,29.60
2019-04-10T16:47:12.106Z,30.93
2019-04-10T16:49:44.672Z,31.23
2019-04-10T16:52:16.742Z,30.23
2019-04-10T16:54:49.648Z,30.43
2019-04-10T16:57:22.555Z,31.00
2019-04-10T16:59:53.231Z,31.27
2019-04-10T17:02:24.693Z,30.73
2019-04-10T17:04:58.440Z,30.87
2019-04-10T17:07:30.698Z,33.70
2019-04-10T17:10:11.529Z,32.57
2019-04-10T17:12:35.907Z,33.27
2019-04-10T17:15:08.134Z,32.20
2019-04-10T17:17:39.705Z,33.17
2019-04-10T17:20:12.613Z,31.60
2019-04-10T17:22:46.040Z,32.00
2019-04-10T17:25:15.843Z,32.20
2019-04-10T17:27:47.963Z,31.87
2019-04-10T17:30:20.311Z,31.40
2019-04-10T17:32:52.251Z,30.30
2019-04-10T17:35:23.370Z,30.57
2019-04-10T17:37:56.441Z,31.63
2019-04-10T17:40:35.449Z,31.37
2019-04-10T17:43:01.105Z,31.73
2019-04-10T17:45:32.545Z,31.63
2019-04-10T17:48:03.821Z,30.93
2019-04-10T17:50:37.255Z,31.40
2019-04-10T17:53:09.244Z,31.77
2019-04-10T17:55:40.163Z,31.73
2019-04-10T17:58:11.619Z,32.73
2019-04-10T18:00:45.355Z,32.87
2019-04-10T18:03:18.676Z,33.33
2019-04-10T18:05:49.473Z,31.77
2019-04-10T18:08:21.198Z,31.47
2019-04-10T18:10:54.149Z,32.13
2019-04-10T18:13:24.631Z,33.13
2019-04-10T18:15:57.164Z,32.40
2019-04-10T18:18:28.046Z,31.17
2019-04-10T18:21:01.882Z,32.60
2019-04-10T18:23:33.554Z,31.17
2019-04-10T18:26:04.590Z,32.07
2019-04-10T18:28:36.421Z,32.33
2019-04-10T18:31:08.323Z,30.87
2019-04-10T18:33:42.585Z,32.20
2019-04-10T18:36:13.417Z,31.43
2019-04-10T18:38:44.029Z,31.80
2019-04-10T18:41:15.685Z,31.10
2019-04-10T18:43:46.701Z,31.43
2019-04-10T18:46:20.912Z,31.07
2019-04-10T18:48:51.883Z,34.47
2019-04-10T18:51:23.499Z,32.13
2019-04-10T18:53:56.029Z,32.77
2019-04-10T18:56:27.202Z,31.40
2019-04-10T18:59:05.689Z,31.63
2019-04-10T19:01:47.364Z,32.67
2019-04-10T19:04:22.542Z,31.03
2019-04-10T19:06:56.698Z,32.87
2019-04-10T19:09:30.415Z,31.33
2019-04-10T19:12:02.621Z,31.10
2019-04-10T19:14:36.609Z,31.90
2019-04-10T19:17:07.002Z,30.03
2019-04-10T19:19:41.822Z,30.40
2019-04-10T19:22:15.767Z,31.30
2019-04-10T19:24:48.875Z,33.40
2019-04-10T19:27:25.072Z,31.93
2019-04-10T19:29:57.184Z,30.27
2019-04-10T19:32:35.397Z,30.57
2019-04-10T19:35:08.250Z,30.33
2019-04-10T19:37:39.142Z,29.53
2019-04-10T19:40:11.172Z,30.20
2019-04-10T19:42:43.836Z,28.50
2019-04-10T19:45:15.581Z,28.70
2019-04-10T19:47:48.053Z,29.83
2019-04-10T19:50:19.389Z,29.20
2019-04-10T19:52:50.774Z,29.47
2019-04-10T19:55:21.942Z,29.37
2019-04-10T19:57:55.382Z,28.57
2019-04-10T20:00:30.820Z,30.07
2019-04-10T20:03:01.638Z,29.63
2019-04-10T20:05:33.656Z,28.77
2019-04-10T20:08:07.309Z,28.37
2019-04-10T20:10:38.261Z,27.27
2019-04-10T20:13:10.336Z,30.50
2019-04-10T20:15:41.286Z,28.93
2019-04-10T20:18:12.822Z,30.43
2019-04-10T20:20:45.736Z,29.03
2019-04-10T20:23:16.961Z,28.77
2019-04-10T20:25:48.770Z,27.87
2019-04-10T20:28:20.623Z,29.70
2019-04-10T20:30:54.909Z,28.60
2019-04-10T20:33:25.060Z,29.10
2019-04-10T20:35:56.410Z,29.63
2019-04-10T20:38:27.883Z,31.93
2019-04-10T20:40:58.732Z,29.97
2019-04-10T20:43:31.069Z,30.63
2019-04-10T20:46:03.851Z,31.03
2019-04-10T20:48:37.010Z,29.97
2019-04-10T20:51:12.302Z,31.83
2019-04-10T20:53:44.277Z,30.87
2019-04-10T20:56:16.670Z,31.20
2019-04-10T20:58:47.745Z,31.30
2019-04-10T21:01:18.173Z,31.47
2019-04-10T21:03:50.263Z,30.13
2019-04-10T21:06:23.261Z,30.03
2019-04-10T21:08:54.443Z,30.00
2019-04-10T21:11:24.925Z,33.97
2019-04-10T21:13:56.574Z,31.73
2019-04-10T21:16:27.487Z,30.27
2019-04-10T21:18:58.329Z,30.30
2019-04-10T21:21:28.864Z,32.27
2019-04-10T21:24:00.619Z,31.80
2019-04-10T21:26:32.439Z,31.47
2019-04-10T21:29:04.879Z,33.00
2019-04-10T21:31:53.578Z,30.37
2019-04-10T21:34:44.747Z,31.50
2019-04-10T21:37:15.843Z,31.60
2019-04-10T21:39:46.259Z,31.37
2019-04-10T21:42:22.337Z,32.07
2019-04-10T21:44:53.373Z,30.60
2019-04-10T21:47:24.302Z,32.73
2019-04-10T21:49:56.912Z,31.40
2019-04-10T21:52:27.459Z,31.80
2019-04-10T21:55:00.568Z,31.17
2019-04-10T21:57:34.168Z,32.30
2019-04-10T22:00:06.327Z,32.23
2019-04-10T22:02:38.362Z,30.40
2019-04-10T22:05:10.872Z,30.33
2019-04-10T22:07:54.772Z,28.53
2019-04-10T22:10:38.337Z,28.70
2019-04-10T22:13:09.148Z,28.63
2019-04-10T22:15:41.928Z,30.83
2019-04-10T22:18:12.908Z,30.17
2019-04-10T22:20:43.698Z,30.00
2019-04-10T22:23:14.512Z,29.17
2019-04-10T22:25:45.901Z,29.60
2019-04-10T22:28:16.990Z,29.43
2019-04-10T22:30:48.422Z,28.33
2019-04-10T22:33:18.870Z,29.23
2019-04-10T22:35:50.416Z,30.77
2019-04-10T22:38:21.559Z,29.00
2019-04-10T22:40:52.481Z,30.43
2019-04-10T22:43:25.330Z,29.90
2019-04-10T22:45:56.985Z,30.17
2019-04-10T22:48:28.685Z,29.57
2019-04-10T22:50:59.480Z,29.07
2019-04-10T22:53:31.090Z,29.57
2019-04-10T22:56:01.893Z,30.00
2019-04-10T22:58:39.353Z,30.10
2019-04-10T23:01:13.023Z,30.07
2019-04-10T23:03:47.470Z,28.87
2019-04-10T23:06:18.033Z,28.43
2019-04-10T23:08:49.645Z,29.80
2019-04-10T23:11:30.349Z,28.53
2019-04-10T23:13:52.765Z,29.60
2019-04-10T23:16:24.161Z,29.33
2019-04-10T23:18:55.722Z,28.53
2019-04-10T23:21:26.728Z,28.40
2019-04-10T23:23:59.094Z,29.73
2019-04-10T23:26:29.641Z,28.60
2019-04-10T23:29:02.172Z,28.07
2019-04-10T23:31:34.055Z,27.83
2019-04-10T23:34:08.413Z,29.07
2019-04-10T23:36:40.335Z,28.33
2019-04-10T23:39:11.946Z,27.33
2019-04-10T23:41:42.741Z,27.93
2019-04-10T23:44:13.273Z,26.73
2019-04-10T23:46:43.820Z,26.63
2019-04-10T23:49:14.672Z,26.67
2019-04-10T23:51:47.355Z,26.00
2019-04-10T23:54:19.383Z,23.30
2019-04-10T23:56:50.758Z,25.07
2019-04-10T23:59:22.528Z,23.57
